createdAt,value
2022-09-25T00:00:51.668Z,90.27
2022-09-25T00:01:51.095Z,90.27
2022-09-25T00:02:51.169Z,90.27
2022-09-25T00:03:51.003Z,90.27
2022-09-25T00:04:50.983Z,90.17
2022-09-25T00:05:50.973Z,90.27
2022-09-25T00:06:50.968Z,90.17
2022-09-25T00:07:50.982Z,90.17
2022-09-25T00:08:50.940Z,90.27
2022-09-25T00:09:50.938Z,90.27
2022-09-25T00:10:50.914Z,90.27
2022-09-25T00:11:50.960Z,90.37
2022-09-25T00:12:50.895Z,90.27
2022-09-25T00:13:50.897Z,90.17
2022-09-25T00:14:50.876Z,90.17
2022-09-25T00:15:50.867Z,90.17
2022-09-25T00:16:50.922Z,90.17
2022-09-25T00:17:50.865Z,90.17
2022-09-25T00:18:50.833Z,90.17
2022-09-25T00:19:50.823Z,90.07
2022-09-25T00:20:50.808Z,89.97
2022-09-25T00:21:50.819Z,89.97
2022-09-25T00:22:50.798Z,89.97
2022-09-25T00:23:50.768Z,89.97
2022-09-25T00:24:50.805Z,89.87
2022-09-25T00:25:50.775Z,89.76
2022-09-25T00:26:50.755Z,89.66
2022-09-25T00:27:50.731Z,89.66
2022-09-25T00:28:50.714Z,89.56
2022-09-25T00:29:50.763Z,89.66
2022-09-25T00:30:50.709Z,89.76
2022-09-25T00:31:50.690Z,89.87
2022-09-25T00:32:50.681Z,89.76
2022-09-25T00:33:50.676Z,89.66
2022-09-25T00:34:50.650Z,89.66
2022-09-25T00:35:50.664Z,89.76
2022-09-25T00:36:50.673Z,89.87
2022-09-25T00:37:50.624Z,89.97
2022-09-25T00:38:50.610Z,90.17
2022-09-25T00:39:50.605Z,90.17
2022-09-25T00:40:50.666Z,90.17
2022-09-25T00:41:50.644Z,90.31
2022-09-25T00:42:50.593Z,90.37
2022-09-25T00:43:50.557Z,90.52
2022-09-25T00:44:50.536Z,90.68
2022-09-25T00:45:50.598Z,90.72
2022-09-25T00:46:50.505Z,90.72
2022-09-25T00:47:50.523Z,90.83
2022-09-25T00:48:50.515Z,90.83
2022-09-25T00:49:50.487Z,90.83
2022-09-25T00:50:50.467Z,90.83
2022-09-25T00:51:54.494Z,90.92
2022-09-25T00:52:50.455Z,91.03
2022-09-25T00:53:50.462Z,91.03
2022-09-25T00:54:50.456Z,91.03
2022-09-25T00:55:50.421Z,91.03
2022-09-25T00:56:50.409Z,91.03
2022-09-25T00:57:50.397Z,91.03
2022-09-25T00:58:50.380Z,91.13
2022-09-25T00:59:50.403Z,91.03
2022-09-25T01:00:50.407Z,91.03
2022-09-25T01:01:50.416Z,91.03
2022-09-25T01:02:50.363Z,91.13
2022-09-25T01:03:50.330Z,91.23
2022-09-25T01:04:50.360Z,91.43
2022-09-25T01:05:50.299Z,91.43
2022-09-25T01:06:50.311Z,91.43
2022-09-25T01:07:50.289Z,91.43
2022-09-25T01:08:50.281Z,91.33
2022-09-25T01:09:50.252Z,91.33
2022-09-25T01:10:50.263Z,91.23
2022-09-25T01:11:50.233Z,91.23
2022-09-25T01:12:50.248Z,91.23
2022-09-25T01:13:50.256Z,91.23
2022-09-25T01:14:50.203Z,91.23
2022-09-25T01:15:50.221Z,91.23
2022-09-25T01:16:50.197Z,91.23
2022-09-25T01:17:50.206Z,91.23
2022-09-25T01:18:50.164Z,91.23
2022-09-25T01:19:52.825Z,91.23
2022-09-25T01:20:50.143Z,91.23
2022-09-25T01:21:50.127Z,91.33
2022-09-25T01:22:50.130Z,91.23
2022-09-25T01:23:50.125Z,91.23
2022-09-25T01:24:50.085Z,91.23
2022-09-25T01:25:50.085Z,91.33
2022-09-25T01:26:50.085Z,91.33
2022-09-25T01:27:50.073Z,91.33
2022-09-25T01:28:50.036Z,91.33
2022-09-25T01:29:50.057Z,91.43
2022-09-25T01:30:50.115Z,91.43
2022-09-25T01:31:50.007Z,91.53
2022-09-25T01:32:50.013Z,91.53
2022-09-25T01:33:49.988Z,91.64
2022-09-25T01:34:49.968Z,91.64
2022-09-25T01:35:49.994Z,91.64
2022-09-25T01:36:49.948Z,91.74
2022-09-25T01:38:10.940Z,91.74
2022-09-25T01:38:49.929Z,91.74
2022-09-25T01:39:49.924Z,91.74
2022-09-25T01:40:49.977Z,91.74
2022-09-25T01:41:49.918Z,91.74
2022-09-25T01:42:49.930Z,91.64
2022-09-25T01:43:49.871Z,91.74
2022-09-25T01:44:49.862Z,91.84
2022-09-25T01:45:49.926Z,91.84
2022-09-25T01:46:49.847Z,91.84
2022-09-25T01:47:49.841Z,91.84
2022-09-25T01:48:49.852Z,91.84
2022-09-25T01:49:49.811Z,91.84
2022-09-25T01:50:49.826Z,91.74
2022-09-25T01:51:49.808Z,91.74
2022-09-25T01:52:49.772Z,91.74
2022-09-25T01:53:49.814Z,91.74
2022-09-25T01:54:49.764Z,91.74
2022-09-25T01:55:49.747Z,91.74
2022-09-25T01:56:49.742Z,91.74
2022-09-25T01:57:49.741Z,91.74
2022-09-25T01:58:49.711Z,91.84
2022-09-25T01:59:49.731Z,91.84
2022-09-25T02:00:49.726Z,91.74
2022-09-25T02:01:49.727Z,91.64
2022-09-25T02:02:49.728Z,91.53
2022-09-25T02:03:49.657Z,91.53
2022-09-25T02:04:49.653Z,91.53
2022-09-25T02:05:49.660Z,91.43
2022-09-25T02:06:49.649Z,91.53
2022-09-25T02:07:49.601Z,91.68
2022-09-25T02:08:49.588Z,91.53
2022-09-25T02:09:49.589Z,91.48
2022-09-25T02:10:49.591Z,91.43
2022-09-25T02:11:49.591Z,91.38
2022-09-25T02:12:49.566Z,91.43
2022-09-25T02:13:49.570Z,91.48
2022-09-25T02:14:49.562Z,91.48
2022-09-25T02:15:49.524Z,91.48
2022-09-25T02:16:49.550Z,91.48
2022-09-25T02:17:49.528Z,91.58
2022-09-25T02:18:49.481Z,91.58
2022-09-25T02:19:49.501Z,91.68
2022-09-25T02:20:49.460Z,91.58
2022-09-25T02:21:49.471Z,91.58
2022-09-25T02:22:49.437Z,91.58
2022-09-25T02:23:49.442Z,91.58
2022-09-25T02:24:49.431Z,91.68
2022-09-25T02:25:49.399Z,91.68
2022-09-25T02:26:49.390Z,91.68
2022-09-25T02:27:49.378Z,91.48
2022-09-25T02:28:49.373Z,91.48
2022-09-25T02:29:49.372Z,91.38
2022-09-25T02:30:49.413Z,91.38
2022-09-25T02:31:49.337Z,91.38
2022-09-25T02:32:49.358Z,91.38
2022-09-25T02:33:49.305Z,91.38
2022-09-25T02:34:49.304Z,91.38
2022-09-25T02:35:49.291Z,91.27
2022-09-25T02:36:49.306Z,91.38
2022-09-25T02:37:50.188Z,91.38
2022-09-25T02:38:49.258Z,91.17
2022-09-25T02:39:49.246Z,91.17
2022-09-25T02:40:49.296Z,91.17
2022-09-25T02:41:49.246Z,91.17
2022-09-25T02:42:49.217Z,91.17
2022-09-25T02:43:49.195Z,91.17
2022-09-25T02:44:49.198Z,91.17
2022-09-25T02:45:49.317Z,91.27
2022-09-25T02:46:49.188Z,91.27
2022-09-25T02:47:49.170Z,91.27
2022-09-25T02:48:49.138Z,91.38
2022-09-25T02:49:49.139Z,91.48
2022-09-25T02:50:49.142Z,91.48
2022-09-25T02:51:49.156Z,91.48
2022-09-25T02:52:49.132Z,91.48
2022-09-25T02:53:49.085Z,91.48
2022-09-25T02:54:49.073Z,91.48
2022-09-25T02:55:49.060Z,91.48
2022-09-25T02:56:49.060Z,91.58
2022-09-25T02:57:49.097Z,91.58
2022-09-25T02:58:49.032Z,91.68
2022-09-25T02:59:49.017Z,91.68
2022-09-25T03:00:49.085Z,91.78
2022-09-25T03:01:49.050Z,91.78
2022-09-25T03:02:52.513Z,91.78
2022-09-25T03:03:49.003Z,91.88
2022-09-25T03:04:48.971Z,91.88
2022-09-25T03:05:48.954Z,91.99
2022-09-25T03:06:48.952Z,92.19
2022-09-25T03:07:48.938Z,92.33
2022-09-25T03:08:48.946Z,92.44
2022-09-25T03:09:48.924Z,92.44
2022-09-25T03:10:48.903Z,92.54
2022-09-25T03:11:48.895Z,92.74
2022-09-25T03:12:48.906Z,92.84
2022-09-25T03:13:48.884Z,92.84
2022-09-25T03:14:48.855Z,93.05
2022-09-25T03:15:48.833Z,93.15
2022-09-25T03:16:48.886Z,93.15
2022-09-25T03:17:48.833Z,93.15
2022-09-25T03:18:48.854Z,93.25
2022-09-25T03:19:48.788Z,93.25
2022-09-25T03:20:48.787Z,93.25
2022-09-25T03:21:48.770Z,93.35
2022-09-25T03:22:48.767Z,93.25
2022-09-25T03:23:48.768Z,93.35
2022-09-25T03:24:48.758Z,93.40
2022-09-25T03:25:50.310Z,93.50
2022-09-25T03:26:48.723Z,93.50
2022-09-25T03:27:48.728Z,93.50
2022-09-25T03:28:48.720Z,93.60
2022-09-25T03:29:48.711Z,93.70
2022-09-25T03:30:48.741Z,93.70
2022-09-25T03:31:48.665Z,93.80
2022-09-25T03:32:48.648Z,93.80
2022-09-25T03:33:48.670Z,93.80
2022-09-25T03:34:48.633Z,93.70
2022-09-25T03:35:48.641Z,93.70
2022-09-25T03:36:48.661Z,93.70
2022-09-25T03:37:48.615Z,93.70
2022-09-25T03:38:48.612Z,93.60
2022-09-25T03:39:48.575Z,93.60
2022-09-25T03:40:48.634Z,93.50
2022-09-25T03:41:48.554Z,93.50
2022-09-25T03:42:48.546Z,93.50
2022-09-25T03:43:48.555Z,93.60
2022-09-25T03:44:48.555Z,93.60
2022-09-25T03:45:48.551Z,93.60
2022-09-25T03:46:48.516Z,93.60
2022-09-25T03:47:48.525Z,93.60
2022-09-25T03:48:48.474Z,93.60
2022-09-25T03:49:48.471Z,93.60
2022-09-25T03:50:48.455Z,93.60
2022-09-25T03:51:48.437Z,93.50
2022-09-25T03:52:48.447Z,93.50
2022-09-25T03:53:48.441Z,93.50
2022-09-25T03:54:48.423Z,93.50
2022-09-25T03:55:48.406Z,93.50
2022-09-25T03:56:48.399Z,93.40
2022-09-25T03:57:48.380Z,93.40
2022-09-25T03:58:48.403Z,93.40
2022-09-25T03:59:48.378Z,93.40
2022-09-25T04:00:48.368Z,93.29
2022-09-25T04:01:48.438Z,93.29
2022-09-25T04:02:48.382Z,93.29
2022-09-25T04:03:48.307Z,93.19
2022-09-25T04:04:48.340Z,93.09
2022-09-25T04:05:48.300Z,93.09
2022-09-25T04:06:48.293Z,92.99
2022-09-25T04:07:48.260Z,92.99
2022-09-25T04:08:48.620Z,92.99
2022-09-25T04:09:48.380Z,93.09
2022-09-25T04:10:48.264Z,93.09
2022-09-25T04:11:48.406Z,92.99
2022-09-25T04:12:48.588Z,92.99
2022-09-25T04:13:48.442Z,92.99
2022-09-25T04:14:48.537Z,92.79
2022-09-25T04:15:48.498Z,92.83
2022-09-25T04:16:48.236Z,92.93
2022-09-25T04:17:48.206Z,93.03
2022-09-25T04:18:48.176Z,93.13
2022-09-25T04:19:49.593Z,93.03
2022-09-25T04:20:48.233Z,92.93
2022-09-25T04:21:48.495Z,92.83
2022-09-25T04:22:48.264Z,92.72
2022-09-25T04:23:48.093Z,92.72
2022-09-25T04:24:48.304Z,92.83
2022-09-25T04:25:48.776Z,92.93
2022-09-25T04:26:48.349Z,92.93
2022-09-25T04:27:48.110Z,93.03
2022-09-25T04:28:48.274Z,92.83
2022-09-25T04:29:48.135Z,92.83
2022-09-25T04:30:48.022Z,92.83
2022-09-25T04:31:48.149Z,92.83
2022-09-25T04:32:48.037Z,92.83
2022-09-25T04:33:48.351Z,92.72
2022-09-25T04:34:47.982Z,92.63
2022-09-25T04:35:47.957Z,92.67
2022-09-25T04:36:48.912Z,92.67
2022-09-25T04:37:47.939Z,92.67
2022-09-25T04:39:01.208Z,92.77
2022-09-25T04:39:47.921Z,92.87
2022-09-25T04:40:48.021Z,92.87
2022-09-25T04:41:47.925Z,92.97
2022-09-25T04:42:47.895Z,93.07
2022-09-25T04:43:47.902Z,93.22
2022-09-25T04:44:47.871Z,93.43
2022-09-25T04:45:47.937Z,93.52
2022-09-25T04:46:47.922Z,93.43
2022-09-25T04:47:48.650Z,93.52
2022-09-25T04:48:47.847Z,93.73
2022-09-25T04:49:47.823Z,93.93
2022-09-25T04:50:47.792Z,93.93
2022-09-25T04:51:47.822Z,94.04
2022-09-25T04:52:47.779Z,94.04
2022-09-25T04:53:47.807Z,94.14
2022-09-25T04:54:49.203Z,94.14
2022-09-25T04:55:47.763Z,94.04
2022-09-25T04:56:47.742Z,93.93
2022-09-25T04:57:58.258Z,93.93
2022-09-25T04:58:48.830Z,93.93
2022-09-25T04:59:47.743Z,93.98
2022-09-25T05:00:47.750Z,93.84
2022-09-25T05:01:48.017Z,93.88
2022-09-25T05:02:47.899Z,93.77
2022-09-25T05:03:47.810Z,93.67
2022-09-25T05:04:48.487Z,93.67
2022-09-25T05:05:47.668Z,93.57
2022-09-25T05:06:47.876Z,93.57
2022-09-25T05:07:47.617Z,93.57
2022-09-25T05:08:47.598Z,93.57
2022-09-25T05:09:47.659Z,93.57
2022-09-25T05:10:47.577Z,93.67
2022-09-25T05:11:47.587Z,93.67
2022-09-25T05:12:47.871Z,93.67
2022-09-25T05:13:47.547Z,93.67
2022-09-25T05:14:47.910Z,93.77
2022-09-25T05:15:48.016Z,93.88
2022-09-25T05:16:47.538Z,94.02
2022-09-25T05:17:47.705Z,94.12
2022-09-25T05:18:47.774Z,94.23
2022-09-25T05:19:47.521Z,94.33
2022-09-25T05:20:47.599Z,94.33
2022-09-25T05:21:47.465Z,94.43
2022-09-25T05:22:47.755Z,94.43
2022-09-25T05:23:47.823Z,94.43
2022-09-25T05:24:47.484Z,94.43
2022-09-25T05:25:47.414Z,94.53
2022-09-25T05:26:47.927Z,94.53
2022-09-25T05:27:47.420Z,94.68
2022-09-25T05:28:47.851Z,94.89
2022-09-25T05:29:47.833Z,94.98
2022-09-25T05:30:47.381Z,95.09
2022-09-25T05:31:47.403Z,95.29
2022-09-25T05:32:47.347Z,95.29
2022-09-25T05:33:47.896Z,95.50
2022-09-25T05:34:47.327Z,95.60
2022-09-25T05:35:48.265Z,95.80
2022-09-25T05:36:47.494Z,95.80
2022-09-25T05:37:47.301Z,95.80
2022-09-25T05:38:47.271Z,95.70
2022-09-25T05:39:48.088Z,95.70
2022-09-25T05:40:47.336Z,95.80
2022-09-25T05:41:47.306Z,95.95
2022-09-25T05:42:48.015Z,96.01
2022-09-25T05:43:48.021Z,96.11
2022-09-25T05:44:48.648Z,96.11
2022-09-25T05:45:47.235Z,96.31
2022-09-25T05:46:47.376Z,96.31
2022-09-25T05:47:47.446Z,96.42
2022-09-25T05:48:48.616Z,96.42
2022-09-25T05:49:48.100Z,96.42
2022-09-25T05:50:47.228Z,96.42
2022-09-25T05:51:47.207Z,96.31
2022-09-25T05:52:47.174Z,96.31
2022-09-25T05:53:48.588Z,96.31
2022-09-25T05:54:48.040Z,96.31
2022-09-25T05:55:48.530Z,96.31
2022-09-25T05:56:47.928Z,96.31
2022-09-25T05:57:47.119Z,96.31
2022-09-25T05:58:47.099Z,96.31
2022-09-25T05:59:48.008Z,96.11
2022-09-25T06:00:47.982Z,96.01
2022-09-25T06:01:48.537Z,95.90
2022-09-25T06:02:47.906Z,95.80
2022-09-25T06:03:47.769Z,95.80
2022-09-25T06:04:47.954Z,95.70
2022-09-25T06:05:48.421Z,95.60
2022-09-25T06:06:48.402Z,95.50
2022-09-25T06:07:47.910Z,95.39
2022-09-25T06:08:47.912Z,95.39
2022-09-25T06:09:47.148Z,95.29
2022-09-25T06:10:48.374Z,95.25
2022-09-25T06:11:47.184Z,95.25
2022-09-25T06:12:47.701Z,95.15
2022-09-25T06:13:52.043Z,95.15
2022-09-25T06:14:48.004Z,95.15
2022-09-25T06:15:47.107Z,95.04
2022-09-25T06:16:48.294Z,95.04
2022-09-25T06:17:47.068Z,95.04
2022-09-25T06:18:48.291Z,94.94
2022-09-25T06:19:46.934Z,94.84
2022-09-25T06:20:46.986Z,94.84
2022-09-25T06:21:47.749Z,94.84
2022-09-25T06:22:47.742Z,94.64
2022-09-25T06:23:47.753Z,94.64
2022-09-25T06:24:46.865Z,94.64
2022-09-25T06:25:47.675Z,94.64
2022-09-25T06:26:46.778Z,94.53
2022-09-25T06:27:46.848Z,94.64
2022-09-25T06:28:47.528Z,94.74
2022-09-25T06:29:48.147Z,94.94
2022-09-25T06:30:48.237Z,94.84
2022-09-25T06:31:48.129Z,95.04
2022-09-25T06:32:47.619Z,95.10
2022-09-25T06:33:46.772Z,95.31
2022-09-25T06:34:47.448Z,95.41
2022-09-25T06:35:46.699Z,95.47
2022-09-25T06:36:46.674Z,95.47
2022-09-25T06:37:48.070Z,95.36
2022-09-25T06:38:48.110Z,95.36
2022-09-25T06:39:46.661Z,95.21
2022-09-25T06:40:48.120Z,95.01
2022-09-25T06:41:48.024Z,94.81
2022-09-25T06:42:48.014Z,94.40
2022-09-25T06:43:48.001Z,93.99
2022-09-25T06:44:46.601Z,93.48
2022-09-25T06:45:47.976Z,93.07
2022-09-25T06:46:47.516Z,92.87
2022-09-25T06:47:47.967Z,92.77
2022-09-25T06:48:46.682Z,92.67
2022-09-25T06:49:47.305Z,92.67
2022-09-25T06:50:46.735Z,92.57
2022-09-25T06:51:46.594Z,92.46
2022-09-25T06:52:47.896Z,92.42
2022-09-25T06:53:46.738Z,92.32
2022-09-25T06:54:46.799Z,92.01
2022-09-25T06:55:46.663Z,91.85
2022-09-25T06:56:46.394Z,91.91
2022-09-25T06:57:46.396Z,91.91
2022-09-25T06:58:46.385Z,91.91
2022-09-25T06:59:46.369Z,91.61
2022-09-25T07:00:46.374Z,91.40
2022-09-25T07:01:46.391Z,91.30
2022-09-25T07:02:46.368Z,91.03
2022-09-25T07:03:46.340Z,90.94
2022-09-25T07:04:46.316Z,90.94
2022-09-25T07:05:46.294Z,90.83
2022-09-25T07:06:46.307Z,90.73
2022-09-25T07:07:46.295Z,90.83
2022-09-25T07:08:46.313Z,90.83
2022-09-25T07:09:47.211Z,90.73
2022-09-25T07:10:46.314Z,90.53
2022-09-25T07:11:46.254Z,90.32
2022-09-25T07:12:47.214Z,90.01
2022-09-25T07:13:46.219Z,90.01
2022-09-25T07:14:46.242Z,90.12
2022-09-25T07:15:46.221Z,90.32
2022-09-25T07:16:46.204Z,90.42
2022-09-25T07:17:47.023Z,90.42
2022-09-25T07:18:47.610Z,90.53
2022-09-25T07:19:46.178Z,90.63
2022-09-25T07:20:46.161Z,90.63
2022-09-25T07:21:46.123Z,90.57
2022-09-25T07:22:46.167Z,90.67
2022-09-25T07:23:46.261Z,90.88
2022-09-25T07:24:47.058Z,90.94
2022-09-25T07:25:46.205Z,90.94
2022-09-25T07:26:47.523Z,90.94
2022-09-25T07:27:47.514Z,91.03
2022-09-25T07:28:46.317Z,91.03
2022-09-25T07:29:46.888Z,90.94
2022-09-25T07:30:46.434Z,90.83
2022-09-25T07:31:46.884Z,90.73
2022-09-25T07:32:47.461Z,90.63
2022-09-25T07:33:46.353Z,90.42
2022-09-25T07:34:46.930Z,90.18
2022-09-25T07:35:46.932Z,89.97
2022-09-25T07:36:46.459Z,89.87
2022-09-25T07:37:46.124Z,89.67
2022-09-25T07:38:46.395Z,89.36
2022-09-25T07:39:45.945Z,88.96
2022-09-25T07:40:47.421Z,88.51
2022-09-25T07:41:45.930Z,88.40
2022-09-25T07:42:46.731Z,88.40
2022-09-25T07:43:47.338Z,88.31
2022-09-25T07:44:48.631Z,88.10
2022-09-25T07:45:45.858Z,87.75
2022-09-25T07:46:46.371Z,87.45
2022-09-25T07:47:45.995Z,87.24
2022-09-25T07:48:46.066Z,87.04
2022-09-25T07:49:47.305Z,86.83
2022-09-25T07:50:45.845Z,86.74
2022-09-25T07:51:45.876Z,86.74
2022-09-25T07:52:46.147Z,86.59
2022-09-25T07:53:45.810Z,86.59
2022-09-25T07:54:46.489Z,86.59
2022-09-25T07:55:45.740Z,86.59
2022-09-25T07:56:45.866Z,86.39
2022-09-25T07:57:46.534Z,86.39
2022-09-25T07:58:45.739Z,85.98
2022-09-25T07:59:45.809Z,85.78
2022-09-25T08:00:46.194Z,85.53
2022-09-25T08:01:52.731Z,85.13
2022-09-25T08:02:46.833Z,84.62
2022-09-25T08:03:45.676Z,84.42
2022-09-25T08:04:45.658Z,84.31
2022-09-25T08:05:45.727Z,84.11
2022-09-25T08:06:46.599Z,83.70
2022-09-25T08:07:45.648Z,83.60
2022-09-25T08:08:45.727Z,83.70
2022-09-25T08:09:45.995Z,83.76
2022-09-25T08:10:45.583Z,83.76
2022-09-25T08:11:45.937Z,83.56
2022-09-25T08:12:45.587Z,83.46
2022-09-25T08:13:45.672Z,83.26
2022-09-25T08:14:46.329Z,82.95
2022-09-25T08:15:45.614Z,82.92
2022-09-25T08:16:45.776Z,82.81
2022-09-25T08:17:45.522Z,82.71
2022-09-25T08:18:45.500Z,82.40
2022-09-25T08:19:45.492Z,82.00
2022-09-25T08:20:45.525Z,81.90
2022-09-25T08:21:45.460Z,81.39
2022-09-25T08:22:45.475Z,81.29
2022-09-25T08:23:48.115Z,81.39
2022-09-25T08:24:45.448Z,81.29
2022-09-25T08:25:45.409Z,80.74
2022-09-25T08:26:45.438Z,80.44
2022-09-25T08:27:46.177Z,80.54
2022-09-25T08:28:45.389Z,80.33
2022-09-25T08:29:45.369Z,80.54
2022-09-25T08:30:45.457Z,80.33
2022-09-25T08:31:45.349Z,80.13
2022-09-25T08:32:45.358Z,80.03
2022-09-25T08:33:45.564Z,80.03
2022-09-25T08:34:45.441Z,79.69
2022-09-25T08:35:45.455Z,79.79
2022-09-25T08:36:45.335Z,79.79
2022-09-25T08:37:45.506Z,79.59
2022-09-25T08:38:45.291Z,79.38
2022-09-25T08:39:45.256Z,79.38
2022-09-25T08:40:46.675Z,79.28
2022-09-25T08:41:45.233Z,79.08
2022-09-25T08:42:45.253Z,79.18
2022-09-25T08:43:45.518Z,79.18
2022-09-25T08:45:02.492Z,78.67
2022-09-25T08:45:46.192Z,78.27
2022-09-25T08:46:45.261Z,78.33
2022-09-25T08:47:45.180Z,78.03
2022-09-25T08:48:45.191Z,77.93
2022-09-25T08:49:45.521Z,77.72
2022-09-25T08:50:45.179Z,77.72
2022-09-25T08:51:45.271Z,77.62
2022-09-25T08:52:45.160Z,77.52
2022-09-25T08:53:45.282Z,77.18
2022-09-25T08:54:45.894Z,77.08
2022-09-25T08:55:45.091Z,76.98
2022-09-25T08:56:45.076Z,76.78
2022-09-25T08:57:45.079Z,76.78
2022-09-25T08:58:45.110Z,76.78
2022-09-25T08:59:45.039Z,76.43
2022-09-25T09:00:45.062Z,76.33
2022-09-25T09:01:45.086Z,75.73
2022-09-25T09:02:45.056Z,75.01
2022-09-25T09:03:44.996Z,74.91
2022-09-25T09:04:45.010Z,74.91
2022-09-25T09:05:49.523Z,74.81
2022-09-25T09:06:53.056Z,74.71
2022-09-25T09:07:46.468Z,74.71
2022-09-25T09:08:45.007Z,74.57
2022-09-25T09:09:44.941Z,74.57
2022-09-25T09:10:44.943Z,74.37
2022-09-25T09:11:45.030Z,73.76
2022-09-25T09:12:44.896Z,73.86
2022-09-25T09:13:44.894Z,73.76
2022-09-25T09:14:44.924Z,74.17
2022-09-25T09:15:44.933Z,73.97
2022-09-25T09:16:45.883Z,74.17
2022-09-25T09:17:44.851Z,73.25
2022-09-25T09:18:44.984Z,73.05
2022-09-25T09:19:44.954Z,72.72
2022-09-25T09:20:44.818Z,72.92
2022-09-25T09:21:44.806Z,72.72
2022-09-25T09:22:44.957Z,72.52
2022-09-25T09:23:44.796Z,72.61
2022-09-25T09:24:44.790Z,72.81
2022-09-25T09:25:44.761Z,72.41
2022-09-25T09:26:45.041Z,71.40
2022-09-25T09:27:44.727Z,70.89
2022-09-25T09:28:44.721Z,70.49
2022-09-25T09:29:45.036Z,71.06
2022-09-25T09:30:44.749Z,70.86
2022-09-25T09:31:44.868Z,70.65
2022-09-25T09:32:44.942Z,70.45
2022-09-25T09:33:44.670Z,69.85
2022-09-25T09:35:04.921Z,69.04
2022-09-25T09:35:45.682Z,69.78
2022-09-25T09:36:44.698Z,70.39
2022-09-25T09:37:44.670Z,71.09
2022-09-25T09:38:44.747Z,71.09
2022-09-25T09:39:44.822Z,71.20
2022-09-25T09:40:44.820Z,71.30
2022-09-25T09:41:44.853Z,71.30
2022-09-25T09:42:44.719Z,71.09
2022-09-25T09:43:44.884Z,70.08
2022-09-25T09:44:44.544Z,69.88
2022-09-25T09:45:44.521Z,69.34
2022-09-25T09:46:45.472Z,69.65
2022-09-25T09:47:45.489Z,69.85
2022-09-25T09:48:44.502Z,69.74
2022-09-25T09:49:44.500Z,69.54
2022-09-25T09:50:48.563Z,69.41
2022-09-25T09:51:45.457Z,69.51
2022-09-25T09:52:44.468Z,69.01
2022-09-25T09:53:44.444Z,69.71
2022-09-25T09:54:44.434Z,69.68
2022-09-25T09:55:44.464Z,67.35
2022-09-25T09:56:44.429Z,67.29
2022-09-25T09:57:44.486Z,68.10
2022-09-25T09:58:44.389Z,68.06
2022-09-25T09:59:44.596Z,68.26
2022-09-25T10:00:44.479Z,68.37
2022-09-25T10:01:44.406Z,68.47
2022-09-25T10:02:44.611Z,68.16
2022-09-25T10:03:44.338Z,67.96
2022-09-25T10:04:44.326Z,66.75
2022-09-25T10:05:44.298Z,65.47
2022-09-25T10:06:44.341Z,66.17
2022-09-25T10:07:44.279Z,66.10
2022-09-25T10:08:44.339Z,66.41
2022-09-25T10:09:44.262Z,66.61
2022-09-25T10:10:44.251Z,67.01
2022-09-25T10:11:44.285Z,67.82
2022-09-25T10:12:44.257Z,67.79
2022-09-25T10:13:44.494Z,68.30
2022-09-25T10:14:44.201Z,68.60
2022-09-25T10:15:44.246Z,68.67
2022-09-25T10:16:44.182Z,68.37
2022-09-25T10:17:44.188Z,68.03
2022-09-25T10:18:44.360Z,67.72
2022-09-25T10:19:45.093Z,67.72
2022-09-25T10:20:44.162Z,66.99
2022-09-25T10:21:44.165Z,65.98
2022-09-25T10:22:44.511Z,65.67
2022-09-25T10:23:44.109Z,64.84
2022-09-25T10:24:44.102Z,65.04
2022-09-25T10:25:44.123Z,64.70
2022-09-25T10:26:44.084Z,63.70
2022-09-25T10:27:44.106Z,63.79
2022-09-25T10:28:44.058Z,64.07
2022-09-25T10:29:44.047Z,63.67
2022-09-25T10:30:44.042Z,63.26
2022-09-25T10:31:44.132Z,63.13
2022-09-25T10:32:44.025Z,63.03
2022-09-25T10:33:44.074Z,62.43
2022-09-25T10:34:43.984Z,62.32
2022-09-25T10:35:43.989Z,63.46
2022-09-25T10:36:43.950Z,64.07
2022-09-25T10:37:43.981Z,64.17
2022-09-25T10:38:43.930Z,63.90
2022-09-25T10:39:45.436Z,64.84
2022-09-25T10:40:44.398Z,65.24
2022-09-25T10:41:43.908Z,64.94
2022-09-25T10:42:43.935Z,64.94
2022-09-25T10:43:43.900Z,64.73
2022-09-25T10:44:43.884Z,65.24
2022-09-25T10:45:43.895Z,65.44
2022-09-25T10:46:43.871Z,65.64
2022-09-25T10:47:43.844Z,65.44
2022-09-25T10:48:43.821Z,65.75
2022-09-25T10:49:43.815Z,66.35
2022-09-25T10:50:43.855Z,66.15
2022-09-25T10:51:43.844Z,65.84
2022-09-25T10:52:43.790Z,65.54
2022-09-25T10:53:43.779Z,63.82
2022-09-25T10:54:45.682Z,63.82
2022-09-25T10:55:43.751Z,64.13
2022-09-25T10:56:44.249Z,64.61
2022-09-25T10:57:43.725Z,64.70
2022-09-25T10:58:43.705Z,64.20
2022-09-25T10:59:43.697Z,63.59
2022-09-25T11:00:43.820Z,63.19
2022-09-25T11:01:43.783Z,62.88
2022-09-25T11:02:43.820Z,63.02
2022-09-25T11:03:43.657Z,63.32
2022-09-25T11:04:43.654Z,63.32
2022-09-25T11:05:43.674Z,63.62
2022-09-25T11:06:43.631Z,64.23
2022-09-25T11:07:43.612Z,64.43
2022-09-25T11:08:43.739Z,64.33
2022-09-25T11:09:43.599Z,64.53
2022-09-25T11:10:43.694Z,64.76
2022-09-25T11:11:43.589Z,64.46
2022-09-25T11:12:43.631Z,64.26
2022-09-25T11:13:43.558Z,64.39
2022-09-25T11:14:43.571Z,64.19
2022-09-25T11:15:43.619Z,64.29
2022-09-25T11:16:43.582Z,63.92
2022-09-25T11:17:43.574Z,63.71
2022-09-25T11:18:43.514Z,64.15
2022-09-25T11:19:43.488Z,64.55
2022-09-25T11:20:43.477Z,64.86
2022-09-25T11:21:43.463Z,65.26
2022-09-25T11:22:43.466Z,65.87
2022-09-25T11:23:43.434Z,66.67
2022-09-25T11:24:43.451Z,67.18
2022-09-25T11:25:43.413Z,66.67
2022-09-25T11:26:43.418Z,67.05
2022-09-25T11:27:43.758Z,67.22
2022-09-25T11:28:43.377Z,65.81
2022-09-25T11:29:43.366Z,65.78
2022-09-25T11:30:43.397Z,65.78
2022-09-25T11:31:43.360Z,65.44
2022-09-25T11:32:44.948Z,64.90
2022-09-25T11:33:43.326Z,63.39
2022-09-25T11:34:43.308Z,63.06
2022-09-25T11:35:43.308Z,62.76
2022-09-25T11:36:43.302Z,62.52
2022-09-25T11:37:43.306Z,62.32
2022-09-25T11:38:43.299Z,61.52
2022-09-25T11:39:43.265Z,61.52
2022-09-25T11:40:43.277Z,60.91
2022-09-25T11:41:43.230Z,60.41
2022-09-25T11:42:43.228Z,60.51
2022-09-25T11:43:43.262Z,60.61
2022-09-25T11:44:43.214Z,60.53
2022-09-25T11:45:43.233Z,60.94
2022-09-25T11:46:43.182Z,61.24
2022-09-25T11:47:43.180Z,62.38
2022-09-25T11:48:43.179Z,61.57
2022-09-25T11:49:43.176Z,62.11
2022-09-25T11:50:43.210Z,62.71
2022-09-25T11:51:43.123Z,62.95
2022-09-25T11:52:43.125Z,63.38
2022-09-25T11:53:43.121Z,63.68
2022-09-25T11:54:43.130Z,63.89
2022-09-25T11:55:43.793Z,64.12
2022-09-25T11:56:43.072Z,64.42
2022-09-25T11:57:43.058Z,65.53
2022-09-25T11:58:43.057Z,65.70
2022-09-25T11:59:43.035Z,66.01
2022-09-25T12:00:43.087Z,63.78
2022-09-25T12:01:43.721Z,63.89
2022-09-25T12:02:43.092Z,64.19
2022-09-25T12:03:42.995Z,64.36
2022-09-25T12:04:43.369Z,64.56
2022-09-25T12:05:42.967Z,64.73
2022-09-25T12:06:42.999Z,64.13
2022-09-25T12:07:42.948Z,63.32
2022-09-25T12:08:42.987Z,63.39
2022-09-25T12:09:42.996Z,63.09
2022-09-25T12:10:43.975Z,61.65
2022-09-25T12:11:42.946Z,60.74
2022-09-25T12:12:42.907Z,61.24
2022-09-25T12:13:42.890Z,60.51
2022-09-25T12:14:43.686Z,60.41
2022-09-25T12:15:42.898Z,59.97
2022-09-25T12:16:42.966Z,59.47
2022-09-25T12:17:42.851Z,58.03
2022-09-25T12:18:42.828Z,57.20
2022-09-25T12:19:42.884Z,56.27
2022-09-25T12:20:42.961Z,55.61
2022-09-25T12:21:42.818Z,55.08
2022-09-25T12:22:44.238Z,54.02
2022-09-25T12:23:42.852Z,53.20
2022-09-25T12:24:42.807Z,52.17
2022-09-25T12:25:42.791Z,52.04
2022-09-25T12:26:42.761Z,51.12
2022-09-25T12:27:42.736Z,50.69
2022-09-25T12:28:42.794Z,50.14
2022-09-25T12:29:42.705Z,49.46
2022-09-25T12:30:42.778Z,48.72
2022-09-25T12:31:42.834Z,48.10
2022-09-25T12:32:43.618Z,47.77
2022-09-25T12:33:42.936Z,47.27
2022-09-25T12:34:44.106Z,46.35
2022-09-25T12:35:42.668Z,46.03
2022-09-25T12:36:42.649Z,45.78
2022-09-25T12:37:42.817Z,45.56
2022-09-25T12:38:42.610Z,44.84
2022-09-25T12:39:43.449Z,44.32
2022-09-25T12:40:42.872Z,43.68
2022-09-25T12:41:42.684Z,42.49
2022-09-25T12:42:42.650Z,42.29
2022-09-25T12:43:42.568Z,41.58
2022-09-25T12:44:42.548Z,41.97
2022-09-25T12:45:42.701Z,41.69
2022-09-25T12:46:44.008Z,42.91
2022-09-25T12:47:43.962Z,42.89
2022-09-25T12:48:43.961Z,42.47
2022-09-25T12:49:43.953Z,42.45
2022-09-25T12:50:43.933Z,41.34
2022-09-25T12:51:42.482Z,40.74
2022-09-25T12:52:42.744Z,40.33